Time;durP1;ratioP1;P1;durP2;ratioP2;P2;SDS_P1;SDS_P2;PMS_P1;PMS_P2;Temp;Humidity;BMP_temperature;BMP_pressure;BME280_temperature;BME280_humidity;BME280_pressure;Samples;Min_cycle;Max_cycle;Signal;HPM_P1;HPM_P2
2022/10/30 00:01:55;;;;;;;12.75;6.68;;;;;;;9.19;79.48;101242.78;5011301;28;20038;-72
2022/10/30 00:04:20;;;;;;;12.18;7.50;;;;;;;9.24;79.58;101251.63;4994944;28;20022;-73
2022/10/30 00:06:47;;;;;;;11.07;7.00;;;;;;;9.11;79.69;101242.34;5011607;28;20046;-74
2022/10/30 00:09:12;;;;;;;12.05;7.10;;;;;;;8.79;79.48;101199.38;5011474;28;20029;-72
2022/10/30 00:11:39;;;;;;;10.80;7.32;;;;;;;9.04;80.00;101242.81;5011218;28;20038;-72
2022/10/30 00:14:05;;;;;;;12.95;6.80;;;;;;;8.84;79.92;101188.50;5011063;28;20040;-73
2022/10/30 00:16:31;;;;;;;15.02;7.55;;;;;;;9.22;80.36;101236.09;5011076;28;20173;-72
2022/10/30 00:18:56;;;;;;;12.52;7.40;;;;;;;9.26;80.28;101242.31;5011108;28;20059;-72
2022/10/30 00:21:22;;;;;;;14.98;7.38;;;;;;;9.37;80.28;101237.72;5010955;28;20042;-73
2022/10/30 00:23:49;;;;;;;13.05;7.80;;;;;;;9.29;80.49;101216.69;5011171;28;20033;-74
2022/10/30 00:26:14;;;;;;;11.05;6.97;;;;;;;9.30;81.13;101244.25;5010833;28;20029;-73
2022/10/30 00:28:40;;;;;;;12.70;7.07;;;;;;;8.64;82.24;101147.91;5025736;28;20233;-74
2022/10/30 00:31:06;;;;;;;10.25;6.22;;;;;;;8.96;83.16;101226.94;5013925;28;20523;-74
2022/10/30 00:33:32;;;;;;;11.57;7.03;;;;;;;8.86;83.76;101225.53;5030642;28;20040;-74
2022/10/30 00:35:59;;;;;;;10.70;6.90;;;;;;;8.77;84.19;101222.44;5030751;28;20179;-75
2022/10/30 00:38:25;;;;;;;11.10;7.30;;;;;;;8.77;84.50;101227.56;5014002;28;20037;-74
2022/10/30 00:40:50;;;;;;;11.73;7.07;;;;;;;8.62;84.62;101203.56;5030608;28;20414;-75
2022/10/30 00:43:39;;;;;;;16.23;8.02;;;;;;;8.36;84.80;101180.66;5013924;28;20036;-74
2022/10/30 00:46:28;;;;;;;11.38;7.30;;;;;;;8.51;85.16;101216.72;5030501;28;20080;-74
2022/10/30 00:48:59;;;;;;;;;;;;;;;8.40;85.78;101220.31;5031034;28;20557;-74
2022/10/30 00:51:27;;;;;;;10.23;7.18;;;;;;;8.30;86.07;101223.13;5030220;28;19964;-77
2022/10/30 00:53:58;;;;;;;10.40;7.05;;;;;;;8.19;86.52;101201.94;5030243;28;20581;-76
2022/10/30 00:56:24;;;;;;;15.07;7.45;;;;;;;8.26;86.47;101211.78;5030781;28;20487;-76
2022/10/30 00:58:54;;;;;;;12.77;7.50;;;;;;;8.23;87.27;101209.91;5032357;28;20505;-76
2022/10/30 01:01:23;;;;;;;;;;;;;;;8.12;87.90;101213.53;5033641;28;20033;-76
2022/10/30 01:03:52;;;;;;;11.68;6.72;;;;;;;7.93;88.98;101207.31;5031093;28;19981;-77
2022/10/30 01:06:17;;;;;;;9.60;5.83;;;;;;;7.89;89.20;101205.38;5031613;28;20025;-77
2022/10/30 01:08:44;;;;;;;10.07;7.10;;;;;;;7.85;89.41;101194.78;5031194;28;20275;-76
2022/10/30 01:11:11;;;;;;;12.50;7.68;;;;;;;7.92;89.44;101200.41;5014487;28;20495;-76
2022/10/30 01:13:38;;;;;;;14.00;6.95;;;;;;;7.90;89.65;101201.09;5023556;28;20030;-76
2022/10/30 01:16:14;;;;;;;14.20;7.38;;;;;;;7.76;90.07;101193.47;5027371;28;20025;-76
2022/10/30 01:19:16;;;;;;;12.20;7.65;;;;;;;7.57;90.37;101175.16;5014770;28;20025;-70
2022/10/30 01:21:47;;;;;;;12.05;6.97;;;;;;;7.82;90.30;101202.34;5009825;28;20030;-70
2022/10/30 01:24:18;;;;;;;13.32;7.25;;;;;;;7.87;90.19;101194.09;5009995;28;20050;-69
2022/10/30 01:27:07;;;;;;;11.45;7.32;;;;;;;7.87;89.84;101186.38;5009394;28;20046;-70
2022/10/30 01:29:57;;;;;;;11.18;6.82;;;;;;;7.75;89.97;101157.38;5010216;28;20447;-70
2022/10/30 01:32:45;;;;;;;9.55;6.80;;;;;;;7.99;89.91;101187.91;5009971;28;20153;-70
2022/10/30 01:35:27;;;;;;;10.82;7.05;;;;;;;8.01;90.14;101188.88;5009510;28;20448;-70
2022/10/30 01:37:55;;;;;;;11.13;7.25;;;;;;;8.05;89.81;101186.59;5009952;28;20121;-70
2022/10/30 01:40:20;;;;;;;12.65;7.40;;;;;;;8.08;89.62;101185.88;5010087;28;20092;-70
2022/10/30 01:42:51;;;;;;;12.68;7.30;;;;;;;8.01;89.33;101176.03;5009736;28;20041;-70
2022/10/30 01:45:35;;;;;;;9.57;6.70;;;;;;;8.12;89.38;101185.25;5009554;28;20112;-70
2022/10/30 01:48:07;;;;;;;13.55;7.43;;;;;;;7.97;89.33;101151.81;5009483;28;20038;-70
2022/10/30 01:50:42;;;;;;;9.85;6.57;;;;;;;8.15;87.34;101190.59;5009406;28;20032;-69
2022/10/30 01:53:30;;;;;;;10.95;6.80;;;;;;;8.12;86.56;101185.25;5009314;28;20049;-70
2022/10/30 01:56:07;;;;;;;11.77;6.90;;;;;;;7.80;85.93;101144.78;5009153;28;20087;-70
2022/10/30 01:58:49;;;;;;;11.60;7.45;;;;;;;8.02;85.77;101176.09;5020709;28;20041;-69
2022/10/30 02:01:15;;;;;;;11.13;6.63;;;;;;;8.04;85.81;101183.94;5031505;28;20038;-69
2022/10/30 02:03:41;;;;;;;12.48;6.82;;;;;;;7.99;85.87;101172.47;5031758;28;20025;-69
2022/10/30 02:06:06;;;;;;;13.02;7.32;;;;;;;7.97;87.17;101168.94;5031453;28;20040;-70
2022/10/30 02:08:32;;;;;;;12.68;7.60;;;;;;;7.98;88.04;101181.88;5013513;28;20053;-69
2022/10/30 02:10:58;;;;;;;12.02;7.18;;;;;;;7.91;88.56;101160.06;5031843;28;20026;-69
2022/10/30 02:13:23;;;;;;;10.27;7.50;;;;;;;7.95;88.59;101171.44;5031287;28;20120;-69
2022/10/30 02:15:49;;;;;;;10.63;7.45;;;;;;;7.94;88.47;101175.66;5031267;28;20129;-69
2022/10/30 02:18:15;;;;;;;11.82;7.22;;;;;;;7.81;88.76;101168.00;5031497;28;20064;-72
2022/10/30 02:20:41;;;;;;;11.57;7.65;;;;;;;7.68;88.35;101145.84;5030083;28;20026;-72
2022/10/30 02:23:07;;;;;;;14.15;7.03;;;;;;;7.66;87.78;101156.84;5029366;28;20038;-71
2022/10/30 02:25:33;;;;;;;13.15;7.32;;;;;;;7.63;87.95;101146.34;5025915;28;20475;-68
2022/10/30 02:27:59;;;;;;;10.38;6.88;;;;;;;7.69;88.32;101170.75;5024686;28;20108;-68
2022/10/30 02:30:24;;;;;;;13.15;7.38;;;;;;;7.65;88.00;101167.91;5030995;28;20035;-68
2022/10/30 02:32:50;;;;;;;11.48;7.55;;;;;;;7.59;88.63;101165.88;5024279;28;20049;-68
2022/10/30 02:35:15;;;;;;;11.30;6.97;;;;;;;7.63;88.81;101172.06;5011392;28;20389;-68
2022/10/30 02:37:40;;;;;;;12.88;8.20;;;;;;;7.57;88.60;101172.59;5023708;28;20398;-68
2022/10/30 02:40:07;;;;;;;11.90;7.18;;;;;;;7.49;87.82;101166.09;5031442;28;20025;-68
2022/10/30 02:42:33;;;;;;;9.80;7.10;;;;;;;7.28;88.03;101133.19;5031279;28;20029;-68
2022/10/30 02:44:58;;;;;;;11.60;7.10;;;;;;;7.34;88.21;101143.84;5031047;28;20479;-68
2022/10/30 02:47:24;;;;;;;11.52;7.40;;;;;;;7.59;87.85;101184.72;5031146;28;20040;-68
2022/10/30 02:49:49;;;;;;;10.20;7.50;;;;;;;7.35;88.10;101173.88;5030970;28;20064;-68
2022/10/30 02:52:15;;;;;;;12.93;7.38;;;;;;;7.34;88.59;101182.38;5030989;28;20583;-68
2022/10/30 02:54:40;;;;;;;15.23;8.23;;;;;;;7.30;89.52;101180.38;5031092;28;20072;-68
2022/10/30 02:57:06;;;;;;;11.82;8.27;;;;;;;7.32;89.63;101171.09;5031075;28;20407;-68
2022/10/30 02:59:31;;;;;;;12.63;7.63;;;;;;;7.32;89.53;101167.66;5031143;28;20072;-68
2022/10/30 03:01:57;;;;;;;9.23;6.90;;;;;;;7.39;89.01;101172.34;5031060;28;20419;-69
2022/10/30 03:04:22;;;;;;;11.13;7.18;;;;;;;7.35;88.35;101168.72;5031077;28;20482;-68
2022/10/30 03:06:47;;;;;;;12.60;8.23;;;;;;;7.39;88.22;101174.91;5031257;28;20060;-68
2022/10/30 03:09:13;;;;;;;13.15;8.50;;;;;;;7.37;88.19;101169.69;5031076;28;20065;-69
2022/10/30 03:11:38;;;;;;;14.65;8.68;;;;;;;7.36;88.26;101167.03;5030762;28;20029;-68
2022/10/30 03:14:04;;;;;;;18.83;9.25;;;;;;;7.36;88.28;101169.59;5030740;28;20049;-68
2022/10/30 03:16:29;;;;;;;17.35;9.65;;;;;;;7.12;88.27;101139.94;5030832;28;20126;-68
2022/10/30 03:18:56;;;;;;;13.10;8.70;;;;;;;7.24;87.41;101164.59;5030498;28;20403;-68
2022/10/30 03:21:24;;;;;;;13.80;7.93;;;;;;;7.07;86.10;101158.44;5030488;28;20519;-68
2022/10/30 03:23:50;;;;;;;12.90;7.75;;;;;;;7.19;86.09;101169.47;5030812;28;20041;-68
2022/10/30 03:26:16;;;;;;;10.48;7.30;;;;;;;7.23;85.58;101171.41;5030688;28;20112;-68
2022/10/30 03:28:42;;;;;;;12.75;7.30;;;;;;;7.25;86.07;101179.22;5030667;28;20032;-68
2022/10/30 03:31:10;;;;;;;12.40;7.68;;;;;;;7.27;86.19;101170.81;5030568;28;20042;-68
2022/10/30 03:33:37;;;;;;;12.00;7.65;;;;;;;7.25;87.17;101177.53;5029708;28;20111;-68
2022/10/30 03:36:06;;;;;;;11.80;7.38;;;;;;;7.29;87.54;101174.38;5013660;28;20530;-68
2022/10/30 03:38:32;;;;;;;13.80;7.32;;;;;;;7.28;87.06;101179.41;5010961;28;20040;-68
2022/10/30 03:40:57;;;;;;;13.60;7.55;;;;;;;7.08;87.47;101147.38;5010807;28;20412;-68
2022/10/30 03:43:23;;;;;;;10.23;7.68;;;;;;;7.20;87.78;101175.47;5010689;28;20077;-68
2022/10/30 03:45:53;;;;;;;11.65;7.53;;;;;;;7.17;88.83;101168.47;4993170;28;20033;-68
2022/10/30 03:48:21;;;;;;;12.05;7.40;;;;;;;7.18;88.81;101165.13;5010770;28;20096;-68
2022/10/30 03:50:47;;;;;;;10.65;6.82;;;;;;;7.20;87.53;101173.81;5010426;28;20037;-68
2022/10/30 03:53:13;;;;;;;11.13;7.10;;;;;;;7.03;86.80;101162.47;5011000;28;20041;-69
2022/10/30 03:55:39;;;;;;;12.52;7.28;;;;;;;7.07;87.34;101174.72;5010587;28;20026;-68
2022/10/30 03:58:05;;;;;;;10.43;7.40;;;;;;;7.14;87.34;101170.88;5010785;28;20029;-68
2022/10/30 04:00:31;;;;;;;9.60;7.13;;;;;;;6.93;88.17;101139.59;5010768;28;20030;-68
2022/10/30 04:02:57;;;;;;;12.00;8.18;;;;;;;7.10;88.07;101169.78;5010258;28;20092;-68
2022/10/30 04:05:23;;;;;;;12.55;8.32;;;;;;;6.91;88.07;101134.34;5010490;28;20480;-68
2022/10/30 04:07:57;;;;;;;11.75;7.80;;;;;;;7.18;87.73;101183.09;5010868;28;20026;-68
2022/10/30 04:10:23;;;;;;;10.45;7.20;;;;;;;7.17;87.57;101167.59;5010548;28;20064;-68
2022/10/30 04:12:49;;;;;;;11.18;7.90;;;;;;;7.08;87.06;101168.78;5010320;28;20069;-68
2022/10/30 04:15:15;;;;;;;12.98;7.50;;;;;;;7.07;87.07;101167.00;5010757;28;20463;-69
2022/10/30 04:17:47;;;;;;;12.52;7.70;;;;;;;7.02;86.51;101154.69;5008901;28;20546;-68
2022/10/30 04:20:13;;;;;;;12.40;8.15;;;;;;;7.00;87.40;101158.84;5009307;28;20037;-68
2022/10/30 04:22:38;;;;;;;14.38;8.52;;;;;;;7.01;87.45;101174.31;5010352;28;20694;-68
2022/10/30 04:25:04;;;;;;;13.35;7.70;;;;;;;7.00;87.35;101163.97;5010239;28;20475;-68
2022/10/30 04:27:29;;;;;;;13.85;7.95;;;;;;;7.01;87.32;101163.19;5010166;28;20041;-68
2022/10/30 04:29:55;;;;;;;14.00;8.27;;;;;;;7.00;86.94;101169.97;5010410;28;20033;-68
2022/10/30 04:32:20;;;;;;;12.95;8.02;;;;;;;6.88;87.17;101171.78;5008890;28;20053;-68
2022/10/30 04:34:46;;;;;;;14.18;8.05;;;;;;;6.90;87.30;101170.19;5010390;28;20468;-68
2022/10/30 04:37:11;;;;;;;11.75;8.02;;;;;;;6.70;87.20;101140.72;5010174;28;20030;-68
2022/10/30 04:39:36;;;;;;;11.68;7.60;;;;;;;6.97;87.04;101167.22;5010062;28;20090;-68
2022/10/30 04:42:02;;;;;;;14.13;7.82;;;;;;;6.92;86.72;101164.38;5010074;28;20034;-68
2022/10/30 04:44:27;;;;;;;12.57;7.35;;;;;;;6.82;86.05;101162.03;5010087;28;20025;-68
2022/10/30 04:46:53;;;;;;;10.88;8.02;;;;;;;6.60;85.07;101172.59;5013157;28;20100;-68
2022/10/30 04:49:18;;;;;;;15.50;8.07;;;;;;;6.43;85.63;101154.44;5013743;28;20030;-68
2022/10/30 04:51:46;;;;;;;11.88;7.18;;;;;;;6.46;86.34;101171.69;5013690;28;20032;-68
2022/10/30 04:54:11;;;;;;;10.65;7.90;;;;;;;6.45;86.66;101157.97;5013359;28;20056;-68
2022/10/30 04:56:37;;;;;;;13.63;8.10;;;;;;;6.56;87.04;101179.19;5013480;28;20038;-68
2022/10/30 04:59:03;;;;;;;12.73;7.85;;;;;;;6.52;87.65;101178.88;5013612;28;20026;-68
2022/10/30 05:01:29;;;;;;;12.30;7.90;;;;;;;6.37;88.14;101172.00;5013764;28;20034;-68
2022/10/30 05:03:57;;;;;;;11.93;8.30;;;;;;;6.40;87.96;101179.00;5013555;28;20083;-68
2022/10/30 05:06:29;;;;;;;15.13;8.33;;;;;;;6.40;88.08;101181.56;5013302;28;20026;-68
2022/10/30 05:08:55;;;;;;;12.70;8.25;;;;;;;6.41;88.08;101173.97;5013498;28;20065;-68
2022/10/30 05:11:21;;;;;;;12.63;7.88;;;;;;;6.41;87.61;101165.41;5013380;28;20483;-69
2022/10/30 05:13:46;;;;;;;15.88;8.95;;;;;;;6.39;88.12;101169.53;5013180;28;20025;-68
2022/10/30 05:16:12;;;;;;;14.02;9.57;;;;;;;6.34;88.91;101171.78;5012945;28;20639;-68
2022/10/30 05:18:37;;;;;;;13.40;9.43;;;;;;;6.32;89.48;101173.38;5013316;28;20068;-69
2022/10/30 05:21:03;;;;;;;13.20;8.15;;;;;;;6.25;89.69;101163.50;5013145;28;20448;-68
2022/10/30 05:23:28;;;;;;;14.95;8.68;;;;;;;6.41;89.69;101173.97;5012962;28;20057;-69
2022/10/30 05:25:54;;;;;;;13.20;8.07;;;;;;;6.42;89.54;101175.75;5013111;28;20117;-70
2022/10/30 05:28:19;;;;;;;14.20;8.60;;;;;;;6.52;89.28;101181.47;5012688;28;20044;-69
2022/10/30 05:30:45;;;;;;;14.07;8.18;;;;;;;6.54;89.23;101179.88;5012538;28;20041;-69
2022/10/30 05:33:11;;;;;;;13.93;8.55;;;;;;;6.58;89.21;101181.84;5012944;28;20034;-69
2022/10/30 05:35:38;;;;;;;13.73;8.52;;;;;;;6.62;89.04;101181.28;5011538;28;20484;-69
2022/10/30 05:38:06;;;;;;;12.02;8.38;;;;;;;6.67;88.74;101189.25;5012655;28;20159;-69
2022/10/30 05:40:33;;;;;;;13.05;8.70;;;;;;;6.71;88.46;101192.13;5012871;28;20079;-69
2022/10/30 05:42:58;;;;;;;14.10;8.52;;;;;;;6.67;88.26;101173.84;5012437;28;20489;-69
2022/10/30 05:45:24;;;;;;;18.05;9.40;;;;;;;6.83;88.09;101191.13;5012711;28;20048;-69
2022/10/30 05:47:57;;;;;;;17.42;10.30;;;;;;;6.24;89.31;101165.19;5012455;28;20034;-69
2022/10/30 05:50:24;;;;;;;20.63;12.77;;;;;;;6.62;89.29;101195.00;5026637;28;20035;-70
2022/10/30 05:52:54;;;;;;;47.88;30.08;;;;;;;6.77;89.05;101194.22;5013761;28;20025;-68
2022/10/30 05:55:20;;;;;;;64.20;37.70;;;;;;;6.90;88.78;101195.88;5012450;28;20041;-69
2022/10/30 05:57:45;;;;;;;43.45;23.80;;;;;;;6.96;88.29;101204.84;5011167;28;20030;-69
2022/10/30 06:00:11;;;;;;;46.78;24.27;;;;;;;7.01;88.38;101201.69;5012114;28;20026;-69
2022/10/30 06:02:37;;;;;;;21.80;12.98;;;;;;;6.87;88.83;101168.31;5009947;28;20038;-69
2022/10/30 06:05:02;;;;;;;26.38;16.33;;;;;;;7.18;89.10;101202.72;5012103;28;20407;-69
2022/10/30 06:07:28;;;;;;;19.98;11.40;;;;;;;7.31;89.16;101199.25;5012191;28;20034;-70
2022/10/30 06:09:53;;;;;;;17.52;12.05;;;;;;;7.35;89.06;101201.22;5011981;28;20084;-69
2022/10/30 06:12:18;;;;;;;16.38;9.30;;;;;;;7.50;89.21;101202.19;5011933;28;20102;-70
2022/10/30 06:14:44;;;;;;;14.93;9.52;;;;;;;7.58;88.80;101203.50;5024814;28;20458;-69
2022/10/30 06:17:09;;;;;;;16.05;10.32;;;;;;;7.63;88.77;101202.88;5031502;28;20470;-69
2022/10/30 06:19:35;;;;;;;16.55;9.88;;;;;;;7.83;88.42;101196.41;5025875;28;20529;-69
2022/10/30 06:22:00;;;;;;;16.98;9.30;;;;;;;8.00;87.91;101195.72;5011768;28;20095;-69
2022/10/30 06:24:26;;;;;;;16.08;10.25;;;;;;;7.99;87.78;101187.91;5011754;28;20049;-69
2022/10/30 06:26:51;;;;;;;17.98;11.60;;;;;;;8.08;88.48;101194.47;5011523;28;20030;-69
2022/10/30 06:29:17;;;;;;;18.85;10.43;;;;;;;8.22;88.42;101181.53;5011698;28;20411;-69
2022/10/30 06:31:42;;;;;;;15.48;10.32;;;;;;;8.38;87.80;101189.34;5011702;28;20053;-69
2022/10/30 06:34:08;;;;;;;14.43;10.40;;;;;;;8.59;87.27;101183.69;5011651;28;20034;-69
2022/10/30 06:36:33;;;;;;;20.60;10.98;;;;;;;8.58;86.62;101138.16;5011823;28;20034;-69
2022/10/30 06:38:59;;;;;;;15.57;9.95;;;;;;;8.97;86.06;101173.72;5011401;28;20085;-69
2022/10/30 06:41:24;;;;;;;15.60;10.63;;;;;;;8.94;86.62;101171.88;5011390;28;20108;-69
2022/10/30 06:43:49;;;;;;;15.60;10.82;;;;;;;8.83;86.69;101176.44;5011485;28;20026;-69
2022/10/30 06:46:15;;;;;;;18.45;11.70;;;;;;;8.65;87.38;101132.53;5011626;28;20029;-69
2022/10/30 06:48:40;;;;;;;18.52;11.35;;;;;;;9.21;86.33;101172.50;4976768;28;20040;-69
2022/10/30 06:51:06;;;;;;;15.18;10.65;;;;;;;9.28;85.86;101177.97;5011532;28;20101;-69
2022/10/30 06:53:31;;;;;;;22.15;11.73;;;;;;;9.40;85.60;101183.78;5011202;28;20465;-69
2022/10/30 06:56:01;;;;;;;16.75;11.20;;;;;;;9.67;84.36;101163.72;5011081;28;20049;-69
2022/10/30 06:58:27;;;;;;;;;;;;;;;9.91;83.86;101170.94;5011832;28;20034;-70
2022/10/30 07:00:53;;;;;;;16.50;11.13;;;;;;;9.92;83.88;101179.56;5011168;28;20303;-70
2022/10/30 07:03:19;;;;;;;21.58;11.05;;;;;;;10.12;83.37;101159.91;5011180;28;20487;-69
2022/10/30 07:05:45;;;;;;;21.90;11.25;;;;;;;10.23;83.14;101157.88;5016270;28;20033;-69
2022/10/30 07:08:10;;;;;;;17.05;11.38;;;;;;;10.42;82.34;101159.69;5030602;28;20029;-69
2022/10/30 07:10:36;;;;;;;21.20;12.30;;;;;;;10.63;81.50;101165.00;5017800;28;20056;-69
2022/10/30 07:13:02;;;;;;;17.48;11.13;;;;;;;10.74;81.36;101158.69;5011208;28;20030;-69
2022/10/30 07:15:28;;;;;;;16.77;11.85;;;;;;;10.78;81.54;101147.66;5011187;28;20041;-69
2022/10/30 07:17:58;;;;;;;17.90;11.13;;;;;;;11.05;80.61;101148.88;5011147;28;20030;-69
2022/10/30 07:20:26;;;;;;;21.40;14.02;;;;;;;11.21;79.87;101155.63;5010915;28;20037;-69
2022/10/30 07:22:52;;;;;;;19.40;12.27;;;;;;;11.27;80.05;101158.50;5010785;28;20053;-69
2022/10/30 07:25:18;;;;;;;17.00;10.95;;;;;;;11.21;79.15;101111.69;5017789;28;20509;-69
2022/10/30 07:27:46;;;;;;;16.60;11.05;;;;;;;11.42;78.97;101145.38;5030733;28;20025;-69
2022/10/30 07:30:13;;;;;;;18.95;11.63;;;;;;;11.21;79.44;101103.94;5030566;28;20084;-69
2022/10/30 07:32:39;;;;;;;16.88;10.90;;;;;;;11.59;79.44;101146.09;5030546;28;20049;-69
2022/10/30 07:35:05;;;;;;;14.13;11.18;;;;;;;11.64;78.86;101145.50;5012048;28;20415;-69
2022/10/30 07:37:31;;;;;;;15.70;10.93;;;;;;;11.74;78.53;101138.13;5028992;28;20033;-69
2022/10/30 07:39:56;;;;;;;14.88;11.13;;;;;;;11.85;78.53;101141.16;5030492;28;20026;-69
2022/10/30 07:42:22;;;;;;;16.40;11.38;;;;;;;11.89;78.68;101143.97;5030629;28;20125;-69
2022/10/30 07:44:47;;;;;;;18.17;10.93;;;;;;;11.97;78.57;101140.03;5030441;28;20030;-69
2022/10/30 07:47:13;;;;;;;13.30;10.00;;;;;;;12.10;78.38;101135.34;5030439;28;20036;-69
2022/10/30 07:49:38;;;;;;;13.02;9.95;;;;;;;12.30;77.98;101134.47;5030688;28;20029;-69
2022/10/30 07:52:04;;;;;;;14.50;10.98;;;;;;;12.42;77.86;101136.69;5029077;28;20108;-69
2022/10/30 07:54:29;;;;;;;17.35;10.40;;;;;;;12.63;76.72;101127.97;5023018;28;20029;-69
2022/10/30 07:56:55;;;;;;;16.20;10.88;;;;;;;12.73;76.55;101131.81;5030396;28;20482;-69
2022/10/30 07:59:20;;;;;;;18.48;10.43;;;;;;;12.90;75.67;101122.09;5030768;28;20030;-69
2022/10/30 08:01:46;;;;;;;14.27;9.85;;;;;;;12.94;75.68;101119.66;5030272;28;20029;-69
2022/10/30 08:04:12;;;;;;;15.95;11.23;;;;;;;13.06;74.79;101124.44;5030432;28;20029;-69
2022/10/30 08:06:38;;;;;;;17.67;11.95;;;;;;;13.15;75.46;101118.72;5030030;28;20021;-69
2022/10/30 08:09:04;;;;;;;15.45;10.75;;;;;;;13.27;74.40;101102.72;5029931;28;20502;-69
2022/10/30 08:11:29;;;;;;;14.05;10.25;;;;;;;13.09;74.62;101066.66;5020921;28;20104;-69
2022/10/30 08:13:55;;;;;;;16.17;10.15;;;;;;;13.49;74.25;101100.94;5019763;28;20369;-69
2022/10/30 08:16:20;;;;;;;20.10;11.05;;;;;;;13.66;73.46;101099.81;5019361;28;20033;-69
2022/10/30 08:18:46;;;;;;;21.25;10.43;;;;;;;13.85;72.79;101096.09;5018311;28;20416;-69
2022/10/30 08:21:11;;;;;;;16.80;10.50;;;;;;;13.94;72.53;101097.25;5022585;28;20399;-69
2022/10/30 08:23:37;;;;;;;16.80;10.48;;;;;;;14.14;71.99;101092.72;5028907;28;20411;-67
2022/10/30 08:26:02;;;;;;;13.73;9.98;;;;;;;14.37;70.91;101096.94;5026979;28;20032;-67
2022/10/30 08:28:28;;;;;;;17.75;11.73;;;;;;;14.48;71.10;101093.78;5023438;28;20423;-69
2022/10/30 08:30:53;;;;;;;16.48;10.13;;;;;;;14.64;70.28;101092.53;5029660;28;20041;-69
2022/10/30 08:33:19;;;;;;;16.50;10.52;;;;;;;14.68;69.63;101090.13;5033474;28;20029;-69
2022/10/30 08:35:55;;;;;;;14.18;10.00;;;;;;;14.82;69.15;101076.66;5008242;28;20042;-69
2022/10/30 08:38:21;;;;;;;13.80;9.80;;;;;;;15.01;69.11;101091.06;5029126;28;20037;-69
2022/10/30 08:40:46;;;;;;;13.10;10.02;;;;;;;15.12;68.14;101081.84;5024949;28;20041;-69
2022/10/30 08:43:12;;;;;;;17.65;11.15;;;;;;;15.26;67.40;101076.16;5019411;28;20052;-69
2022/10/30 08:45:37;;;;;;;15.43;10.45;;;;;;;15.37;67.77;101075.59;5023538;28;20068;-68
2022/10/30 08:48:04;;;;;;;17.42;10.57;;;;;;;15.57;66.72;101074.38;5005681;28;20038;-69
2022/10/30 08:50:31;;;;;;;16.67;9.95;;;;;;;15.72;65.96;101066.09;5022608;28;20033;-70
2022/10/30 08:53:08;;;;;;;14.77;10.55;;;;;;;15.79;66.11;101068.88;5023760;28;20026;-70
2022/10/30 08:55:34;;;;;;;19.08;13.20;;;;;;;15.78;66.25;101027.19;5023071;28;20492;-70
2022/10/30 08:58:00;;;;;;;18.73;11.13;;;;;;;16.08;64.82;101039.22;5022435;28;20063;-71
2022/10/30 09:00:26;;;;;;;19.08;9.63;;;;;;;16.33;64.15;101056.28;5023270;28;20026;-71
2022/10/30 09:02:52;;;;;;;14.35;8.45;;;;;;;16.46;63.59;101057.44;5019417;28;20714;-70
2022/10/30 09:05:17;;;;;;;13.45;8.55;;;;;;;16.58;63.66;101055.09;5026280;28;20029;-70
2022/10/30 09:07:43;;;;;;;16.30;7.68;;;;;;;16.86;62.71;101054.78;5032112;28;20029;-73
2022/10/30 09:10:08;;;;;;;10.75;6.60;;;;;;;16.98;61.70;101052.47;5033433;28;20063;-70
2022/10/30 09:12:34;;;;;;;11.52;6.82;;;;;;;17.16;61.16;101051.06;5011048;28;20440;-70
2022/10/30 09:14:59;;;;;;;9.35;6.85;;;;;;;17.23;61.07;101038.16;5013195;28;20033;-70
2022/10/30 09:17:25;;;;;;;11.48;6.05;;;;;;;17.38;59.91;101036.69;5025040;28;20029;-69
2022/10/30 09:19:50;;;;;;;10.55;6.78;;;;;;;17.22;60.75;101007.72;5029080;28;20034;-71
2022/10/30 09:22:16;;;;;;;10.95;6.15;;;;;;;17.53;59.34;101021.28;5026104;28;20448;-68
2022/10/30 09:24:41;;;;;;;12.02;5.20;;;;;;;17.52;58.96;101032.63;5032510;28;20021;-68
2022/10/30 09:27:07;;;;;;;12.73;6.82;;;;;;;17.59;59.20;101020.53;5032128;28;20036;-71
2022/10/30 09:29:32;;;;;;;11.65;5.30;;;;;;;17.75;59.06;101022.53;5032804;28;20116;-70
2022/10/30 09:31:59;;;;;;;8.07;5.18;;;;;;;17.73;57.62;100990.31;5017321;28;20117;-69
2022/10/30 09:34:24;;;;;;;8.00;5.18;;;;;;;17.89;57.63;101025.38;5012981;28;20037;-69
2022/10/30 09:36:49;;;;;;;14.75;6.18;;;;;;;17.84;57.96;101024.41;5012216;28;20560;-71
2022/10/30 09:39:15;;;;;;;9.25;5.18;;;;;;;17.80;57.92;101006.94;5015083;28;20029;-70
2022/10/30 09:42:07;;;;;;;9.98;5.60;;;;;;;18.03;58.80;101016.91;5014740;28;20034;-70
2022/10/30 09:44:40;;;;;;;12.73;6.05;;;;;;;18.17;57.01;101002.31;5017300;28;20022;-69
2022/10/30 09:47:24;;;;;;;12.32;5.75;;;;;;;18.42;56.82;100998.28;5012673;28;20052;-69
2022/10/30 09:50:21;;;;;;;10.77;6.18;;;;;;;18.48;56.08;100994.91;4993914;28;20065;-69
2022/10/30 09:53:24;;;;;;;11.50;6.95;;;;;;;18.74;55.14;100989.09;5011145;28;20026;-69
2022/10/30 09:56:02;;;;;;;14.63;7.90;;;;;;;18.89;55.55;100983.16;4993866;28;20391;-69
2022/10/30 09:58:36;;;;;;;11.07;5.38;;;;;;;18.77;55.47;100989.13;5011502;28;20030;-70
2022/10/30 10:01:18;;;;;;;7.03;5.03;;;;;;;18.89;54.58;100970.97;4993405;28;20137;-72
2022/10/30 10:04:05;;;;;;;13.98;7.78;;;;;;;18.90;54.35;100938.75;5011301;28;20416;-69
2022/10/30 10:06:34;;;;;;;8.90;4.68;;;;;;;19.22;53.71;100971.31;5011332;28;20388;-72
2022/10/30 10:09:05;;;;;;;9.93;5.53;;;;;;;19.25;53.01;100958.25;5010958;28;20046;-71
2022/10/30 10:11:37;;;;;;;8.45;5.07;;;;;;;19.23;52.43;100960.84;5013611;28;20034;-71
2022/10/30 10:14:12;;;;;;;15.93;5.85;;;;;;;19.27;53.15;100940.81;5024073;28;20111;-74
2022/10/30 10:16:40;;;;;;;51.20;12.77;;;;;;;19.47;52.84;100947.97;5017184;28;20141;-69
2022/10/30 10:19:09;;;;;;;17.85;11.10;;;;;;;19.78;52.04;100946.44;5028034;28;20040;-69
2022/10/30 10:21:43;;;;;;;37.47;19.45;;;;;;;19.76;50.28;100905.38;5031474;28;20102;-69
2022/10/30 10:24:17;;;;;;;11.80;5.50;;;;;;;19.92;49.67;100924.72;5034088;28;20025;-69
2022/10/30 10:26:52;;;;;;;9.07;5.20;;;;;;;20.01;50.07;100927.38;5031585;28;20108;-67
2022/10/30 10:29:41;;;;;;;22.73;13.30;;;;;;;20.10;48.86;100926.56;5031016;28;20427;-67
2022/10/30 10:32:29;;;;;;;13.75;8.38;;;;;;;20.17;48.52;100918.72;5030278;28;20519;-68
2022/10/30 10:35:06;;;;;;;12.90;8.43;;;;;;;20.38;48.01;100911.81;5030097;28;20367;-67
2022/10/30 10:37:40;;;;;;;11.45;4.32;;;;;;;20.45;46.89;100908.38;5029868;28;20037;-66
2022/10/30 10:40:20;;;;;;;7.82;4.22;;;;;;;20.32;47.14;100896.94;5030127;28;20052;-73
2022/10/30 10:43:09;;;;;;;10.18;5.13;;;;;;;20.53;46.16;100893.50;5029402;28;20065;-68
2022/10/30 10:45:53;;;;;;;10.75;5.63;;;;;;;20.78;45.88;100890.97;5030192;28;20113;-71
2022/10/30 10:48:55;;;;;;;6.70;4.00;;;;;;;20.99;44.41;100884.88;5029852;28;20446;-70
2022/10/30 10:51:30;;;;;;;7.50;3.92;;;;;;;21.13;43.48;100871.75;5029874;28;20022;-68
2022/10/30 10:54:01;;;;;;;6.97;5.10;;;;;;;21.19;43.27;100875.25;5029768;28;20035;-73
2022/10/30 10:56:32;;;;;;;9.30;4.20;;;;;;;21.31;43.45;100873.50;5029512;28;20040;-70
2022/10/30 10:59:02;;;;;;;7.78;3.83;;;;;;;21.46;41.93;100869.97;5029989;28;20029;-67
2022/10/30 11:01:39;;;;;;;7.78;3.65;;;;;;;21.50;41.82;100861.19;5029578;28;20029;-69
2022/10/30 11:04:23;;;;;;;7.05;3.45;;;;;;;21.73;39.04;100852.44;5029646;28;20021;-70
2022/10/30 11:06:52;;;;;;;6.45;3.38;;;;;;;21.75;39.94;100855.91;5011933;28;20085;-71
2022/10/30 11:09:20;;;;;;;7.03;2.92;;;;;;;21.73;39.28;100835.78;5012120;28;20036;-69
2022/10/30 11:11:48;;;;;;;4.03;2.57;;;;;;;21.62;40.28;100841.06;5029465;28;20483;-66
2022/10/30 11:14:19;;;;;;;6.82;2.83;;;;;;;21.66;39.87;100842.81;5029107;28;20025;-67
2022/10/30 11:16:58;;;;;;;9.45;3.50;;;;;;;21.33;39.18;100757.94;5029562;28;20037;-66
2022/10/30 11:19:23;;;;;;;4.78;2.78;;;;;;;21.87;39.33;100838.34;5029634;28;20108;-67
2022/10/30 11:21:52;;;;;;;7.53;3.60;;;;;;;21.90;40.75;100839.22;5028207;28;20037;-67
2022/10/30 11:24:34;;;;;;;7.00;3.20;;;;;;;21.86;38.33;100829.59;5029386;28;20029;-67
2022/10/30 11:27:23;;;;;;;5.13;2.55;;;;;;;21.85;37.97;100813.84;5029464;28;20037;-66
2022/10/30 11:29:55;;;;;;;6.13;2.97;;;;;;;21.79;38.15;100797.22;5029226;28;20761;-70